Time;durP1;ratioP1;P1;durP2;ratioP2;P2;SDS_P1;SDS_P2;PMS_P1;PMS_P2;Temp;Humidity;BMP_temperature;BMP_pressure;BME280_temperature;BME280_humidity;BME280_pressure;Samples;Min_cycle;Max_cycle;Signal;HPM_P1;HPM_P2
2022/10/06 00:00:05;;;;;;;;;;;;;;;65.05;0.59;100927.13;5051075;28;19969;-65
2022/10/06 00:02:34;;;;;;;;;;;;;;;65.08;0.40;100932.50;5053233;28;19936;-65
2022/10/06 00:05:00;;;;;;;;;;;;;;;63.46;0.96;100920.19;5053584;28;19954;-65
2022/10/06 00:07:26;;;;;;;;;;;;;;;65.03;0.48;100912.22;5053158;28;20400;-64
2022/10/06 00:09:52;;;;;;;;;;;;;;;63.97;1.45;100913.84;5053359;28;19917;-65
2022/10/06 00:12:18;;;;;;;;;;;;;;;65.04;0.44;100914.50;5053238;28;19921;-65
2022/10/06 00:14:44;;;;;;;;;;;;;;;65.08;0.53;100902.94;5053143;28;19917;-65
2022/10/06 00:17:11;;;;;;;;;;;;;;;64.99;0.59;100912.72;5053191;28;19925;-65
2022/10/06 00:19:37;;;;;;;;;;;;;;;66.08;0.31;100923.31;5053259;28;20278;-65
2022/10/06 00:22:03;;;;;;;;;;;;;;;64.50;0.89;100929.72;5052920;28;19921;-65
2022/10/06 00:24:30;;;;;;;;;;;;;;;64.67;1.54;100931.50;5052922;28;19928;-65
2022/10/06 00:26:57;;;;;;;;;;;;;;;65.61;0.66;100941.50;5052963;28;19925;-65
2022/10/06 00:29:23;;;;;;;;;;;;;;;64.34;0.90;100938.38;5052896;28;19946;-65
2022/10/06 00:31:51;;;;;;;;;;;;;;;64.76;1.04;100945.34;5051437;28;20302;-65
2022/10/06 00:34:17;;;;;;;;;;;;;;;65.56;0.50;100951.56;5052927;28;20392;-65
2022/10/06 00:36:44;;;;;;;;;;;;;;;65.87;0.77;100957.00;5051754;28;19921;-65
2022/10/06 00:39:10;;;;;;;;;;;;;;;64.22;1.03;100943.50;5052729;28;20009;-65
2022/10/06 00:41:37;;;;;;;;;;;;;;;64.03;1.24;100955.59;5052941;28;20012;-65
2022/10/06 00:44:04;;;;;;;;;;;;;;;62.34;2.39;100950.09;5052633;28;19921;-65
2022/10/06 00:46:44;;;;;;;;;;;;;;;61.59;2.14;100960.09;5052735;28;19958;-65
2022/10/06 00:49:13;;;;;;;;;;;;;;;60.63;2.93;100958.69;5053029;28;19931;-65
2022/10/06 00:51:41;;;;;;;;;;;;;;;58.81;3.20;100968.63;5051631;28;19917;-65
2022/10/06 00:54:08;;;;;;;;;;;;;;;58.82;3.68;100967.25;5034733;28;19921;-65
2022/10/06 00:56:34;;;;;;;;;;;;;;;57.40;3.84;100972.09;5051120;28;19916;-65
2022/10/06 00:59:00;;;;;;;;;;;;;;;57.12;3.74;100973.16;5052321;28;19928;-64
2022/10/06 01:01:30;;;;;;;;;;;;;;;57.15;4.39;100969.06;5052394;28;19917;-65
2022/10/06 01:03:59;;;;;;;;;;;;;;;57.03;5.10;100971.59;5052113;28;19921;-65
2022/10/06 01:06:25;;;;;;;;;;;;;;;55.85;5.58;100977.75;5052372;28;19931;-65
2022/10/06 01:08:52;;;;;;;;;;;;;;;55.58;5.88;100974.34;5052166;28;19928;-66
2022/10/06 01:11:18;;;;;;;;;;;;;;;55.90;5.38;100978.94;5051597;28;20346;-64
2022/10/06 01:13:45;;;;;;;;;;;;;;;55.96;4.93;100973.69;5052293;28;19916;-64
2022/10/06 01:16:21;;;;;;;;;;;;;;;55.22;5.99;100976.47;5050988;28;20365;-64
2022/10/06 01:18:47;;;;;;;;;;;;;;;54.78;6.11;100976.38;5073232;27;19921;-64
2022/10/06 01:21:14;;;;;;;;;;;;;;;55.30;5.26;100980.22;5123402;27;19920;-64
2022/10/06 01:23:40;;;;;;;;;;;;;;;54.83;5.92;100984.94;5061900;27;21358;-64
2022/10/06 01:26:09;;;;;;;;;;;;;;;54.98;7.72;100981.38;5064395;27;19920;-65
2022/10/06 01:28:36;;;;;;;;;;;;;;;54.95;7.72;100988.34;5122678;27;19920;-64
2022/10/06 01:31:03;;;;;;;;;;;;;;;54.66;7.16;100986.75;5044349;27;20238;-65
2022/10/06 01:33:31;;;;;;;;;;;;;;;54.61;6.89;100988.44;5046350;27;19947;-64
2022/10/06 01:35:57;;;;;;;;;;;;;;;53.60;8.50;100995.84;5041090;27;20291;-65
2022/10/06 01:38:24;;;;;;;;;;;;;;;53.97;8.65;101001.34;5049481;27;19959;-65
2022/10/06 01:40:56;;;;;;;;;;;;;;;54.12;8.03;100994.94;5040561;27;20294;-64
2022/10/06 01:43:22;;;;;;;;;;;;;;;53.53;7.94;100999.44;5054998;27;20026;-65
2022/10/06 01:45:55;;;;;;;;;;;;;;;53.94;8.24;101005.38;5042771;27;20128;-65
2022/10/06 01:48:22;;;;;;;;;;;;;;;54.18;8.15;101007.22;5046666;27;19918;-64
2022/10/06 01:50:49;;;;;;;;;;;;;;;53.84;8.69;101006.41;5044268;27;20394;-65
2022/10/06 01:53:16;;;;;;;;;;;;;;;53.70;8.79;101002.78;5044495;27;19917;-64
2022/10/06 01:55:43;;;;;;;;;;;;;;;53.87;8.76;101000.28;5042748;27;19921;-65
2022/10/06 01:58:11;;;;;;;;;;;;;;;53.76;8.89;101002.66;5044879;27;19924;-65
2022/10/06 02:00:39;;;;;;;;;;;;;;;53.25;8.63;101006.56;5040152;27;20278;-64
2022/10/06 02:03:06;;;;;;;;;;;;;;;53.46;9.15;101005.91;5047224;27;19931;-64
2022/10/06 02:05:32;;;;;;;;;;;;;;;53.70;8.57;101011.50;5041554;27;19937;-64
2022/10/06 02:08:00;;;;;;;;;;;;;;;53.00;9.23;101011.81;5045372;28;19972;-64
2022/10/06 02:10:26;;;;;;;;;;;;;;;52.78;8.99;101018.78;5040129;27;19944;-64
2022/10/06 02:12:53;;;;;;;;;;;;;;;52.82;9.28;101012.69;5041602;28;19928;-64
2022/10/06 02:15:21;;;;;;;;;;;;;;;52.25;9.65;101017.78;5042026;27;19973;-63
2022/10/06 02:17:47;;;;;;;;;;;;;;;52.12;10.32;101009.84;5036141;27;19921;-63
2022/10/06 02:20:15;;;;;;;;;;;;;;;52.65;9.97;101017.97;5038859;27;19921;-64
2022/10/06 02:22:42;;;;;;;;;;;;;;;52.50;9.37;101015.59;5037376;27;20398;-64
2022/10/06 02:25:09;;;;;;;;;;;;;;;52.22;9.75;101013.88;5041202;27;20017;-63
2022/10/06 02:27:38;;;;;;;;;;;;;;;52.17;9.70;101022.69;5041195;27;19951;-65
2022/10/06 02:30:06;;;;;;;;;;;;;;;51.47;10.07;101018.84;5047740;27;19928;-65
2022/10/06 02:32:38;;;;;;;;;;;;;;;51.17;11.00;101019.69;5043176;27;19974;-64
2022/10/06 02:35:06;;;;;;;;;;;;;;;51.13;11.06;101024.22;5038346;27;19928;-65
2022/10/06 02:37:33;;;;;;;;;;;;;;;51.45;10.59;101030.22;5042943;27;19928;-64
2022/10/06 02:40:01;;;;;;;;;;;;;;;52.18;10.29;101030.03;5038399;27;20354;-63
2022/10/06 02:42:29;;;;;;;;;;;;;;;52.44;9.84;101024.41;5046626;27;19921;-64
2022/10/06 02:44:57;;;;;;;;;;;;;;;51.48;10.25;101038.59;5039530;27;19921;-64
2022/10/06 02:47:24;;;;;;;;;;;;;;;52.07;9.85;101036.81;5044339;27;19928;-64
2022/10/06 02:49:52;;;;;;;;;;;;;;;51.97;9.65;101033.50;5041609;27;19921;-64
2022/10/06 02:52:19;;;;;;;;;;;;;;;51.81;9.83;101036.63;5045591;27;20413;-63
2022/10/06 02:54:47;;;;;;;;;;;;;;;51.27;10.59;101038.28;5044479;27;19929;-64
2022/10/06 02:57:14;;;;;;;;;;;;;;;51.84;9.63;101035.53;5047295;27;19921;-63
2022/10/06 02:59:41;;;;;;;;;;;;;;;52.20;9.92;101031.06;5046840;27;19967;-65
2022/10/06 03:02:08;;;;;;;;;;;;;;;52.41;9.54;101036.31;5037257;27;19922;-63
2022/10/06 03:04:35;;;;;;;;;;;;;;;52.02;10.25;101033.94;5045040;27;19974;-64
2022/10/06 03:07:02;;;;;;;;;;;;;;;52.36;9.84;101040.84;5037718;27;20035;-63
2022/10/06 03:09:34;;;;;;;;;;;;;;;52.20;9.46;101045.56;5043320;27;20007;-63
2022/10/06 03:12:01;;;;;;;;;;;;;;;52.07;9.65;101048.41;5040144;27;19935;-63
2022/10/06 03:14:35;;;;;;;;;;;;;;;51.87;10.39;101054.72;5036408;27;19970;-63
2022/10/06 03:17:02;;;;;;;;;;;;;;;51.87;10.13;101051.81;5044940;27;19964;-63
2022/10/06 03:19:30;;;;;;;;;;;;;;;51.99;9.93;101058.25;5036373;27;20007;-64
2022/10/06 03:21:56;;;;;;;;;;;;;;;51.99;9.51;101061.16;5036425;27;19918;-63
2022/10/06 03:24:34;;;;;;;;;;;;;;;51.94;9.89;101063.59;5034332;27;19921;-64
2022/10/06 03:27:00;;;;;;;;;;;;;;;51.83;9.93;101062.94;5035877;27;19921;-63
2022/10/06 03:29:27;;;;;;;;;;;;;;;51.42;10.07;101075.53;5035088;27;19921;-63
2022/10/06 03:31:56;;;;;;;;;;;;;;;51.32;10.49;101080.88;5036390;27;19928;-63
2022/10/06 03:34:22;;;;;;;;;;;;;;;50.92;10.23;101079.69;5037099;27;19925;-62
2022/10/06 03:36:49;;;;;;;;;;;;;;;51.17;10.41;101080.50;5037619;27;20364;-63
2022/10/06 03:39:19;;;;;;;;;;;;;;;51.58;10.06;101088.28;5038446;27;19960;-63
2022/10/06 03:41:45;;;;;;;;;;;;;;;51.32;9.99;101088.78;5038003;27;19929;-64
2022/10/06 03:44:13;;;;;;;;;;;;;;;50.05;11.11;101092.06;5036106;27;19925;-63
2022/10/06 03:46:41;;;;;;;;;;;;;;;50.38;11.19;101094.00;5036225;27;19932;-63
2022/10/06 03:49:08;;;;;;;;;;;;;;;49.83;11.68;101108.19;5036647;27;19917;-63
2022/10/06 03:51:39;;;;;;;;;;;;;;;50.16;11.03;101103.59;5039653;27;19921;-63
2022/10/06 03:54:11;;;;;;;;;;;;;;;49.62;11.99;101109.81;5051960;27;19921;-64
2022/10/06 03:56:40;;;;;;;;;;;;;;;50.25;11.62;101114.03;5056221;28;20071;-63
2022/10/06 03:59:11;;;;;;;;;;;;;;;50.56;11.20;101113.63;5048186;28;19921;-63
2022/10/06 04:01:41;;;;;;;;;;;;;;;50.02;11.87;101125.72;5046217;28;20404;-65
2022/10/06 04:04:10;;;;;;;;;;;;;;;50.74;11.18;101118.00;5047410;28;19917;-64
2022/10/06 04:06:37;;;;;;;;;;;;;;;50.22;11.90;101121.69;5048227;28;20484;-63
2022/10/06 04:09:06;;;;;;;;;;;;;;;50.62;11.40;101119.34;5049336;28;19923;-63
2022/10/06 04:11:36;;;;;;;;;;;;;;;49.77;12.54;101126.88;5047833;28;19985;-63
2022/10/06 04:14:08;;;;;;;;;;;;;;;50.29;11.72;101131.94;5048173;28;19968;-62
2022/10/06 04:16:36;;;;;;;;;;;;;;;49.94;11.71;101132.59;5048676;28;19920;-62
2022/10/06 04:19:04;;;;;;;;;;;;;;;49.79;12.57;101135.78;5048491;28;19917;-62
2022/10/06 04:21:34;;;;;;;;;;;;;;;49.49;12.76;101129.78;5048545;28;19956;-63
2022/10/06 04:24:02;;;;;;;;;;;;;;;49.85;13.23;101127.88;5048183;28;19977;-64
2022/10/06 04:26:32;;;;;;;;;;;;;;;50.13;12.53;101137.25;5049660;28;20007;-64
2022/10/06 04:28:59;;;;;;;;;;;;;;;49.63;13.61;101128.72;5049802;28;20061;-63
2022/10/06 04:31:27;;;;;;;;;;;;;;;49.54;13.14;101137.66;5048833;28;19966;-64
2022/10/06 04:33:55;;;;;;;;;;;;;;;49.65;13.42;101131.88;5046743;28;20401;-63
2022/10/06 04:36:22;;;;;;;;;;;;;;;49.97;12.80;101140.19;5034552;28;19925;-65
2022/10/06 04:38:57;;;;;;;;;;;;;;;50.03;12.51;101143.88;5036152;28;19962;-64
2022/10/06 04:41:26;;;;;;;;;;;;;;;49.90;13.40;101142.31;5043696;28;19925;-65
2022/10/06 04:43:53;;;;;;;;;;;;;;;49.91;12.60;101149.66;5036264;27;19916;-65
2022/10/06 04:46:21;;;;;;;;;;;;;;;50.17;12.48;101155.13;5040076;27;19966;-65
2022/10/06 04:48:49;;;;;;;;;;;;;;;49.89;12.57;101155.19;5039971;28;19929;-62
2022/10/06 04:51:16;;;;;;;;;;;;;;;50.00;12.34;101147.81;5037180;28;19921;-64
2022/10/06 04:53:45;;;;;;;;;;;;;;;49.68;13.31;101159.72;5040389;28;19921;-65
2022/10/06 04:56:14;;;;;;;;;;;;;;;50.13;12.43;101159.63;5045694;28;19921;-65
2022/10/06 04:58:43;;;;;;;;;;;;;;;50.50;12.40;101153.41;5038974;28;20005;-65
2022/10/06 05:01:15;;;;;;;;;;;;;;;50.18;12.89;101161.69;5036386;28;19928;-63
2022/10/06 05:03:41;;;;;;;;;;;;;;;50.12;12.63;101166.72;5038242;28;19931;-63
2022/10/06 05:06:10;;;;;;;;;;;;;;;49.96;12.71;101156.75;5044026;28;19925;-63
2022/10/06 05:08:37;;;;;;;;;;;;;;;49.36;13.81;101155.53;5041207;28;19921;-63
2022/10/06 05:11:08;;;;;;;;;;;;;;;49.89;13.15;101163.84;5039801;28;19982;-66
2022/10/06 05:13:38;;;;;;;;;;;;;;;49.78;13.46;101158.13;5047180;28;19920;-65
2022/10/06 05:16:06;;;;;;;;;;;;;;;50.18;12.52;101171.16;5043697;28;20015;-65
2022/10/06 05:18:34;;;;;;;;;;;;;;;49.83;12.95;101160.22;5046344;28;19920;-65
2022/10/06 05:21:10;;;;;;;;;;;;;;;50.02;13.10;101160.44;5047322;28;19917;-65
2022/10/06 05:23:38;;;;;;;;;;;;;;;49.78;12.72;101166.81;5048275;27;19967;-64
2022/10/06 05:26:06;;;;;;;;;;;;;;;49.14;13.41;101168.66;5044911;28;19924;-64
2022/10/06 05:28:33;;;;;;;;;;;;;;;49.35;13.16;101177.06;5047363;28;19968;-65
2022/10/06 05:31:01;;;;;;;;;;;;;;;49.34;12.95;101175.50;5040561;28;19997;-65
2022/10/06 05:33:30;;;;;;;;;;;;;;;49.78;12.42;101181.25;5042356;28;19920;-65
2022/10/06 05:35:57;;;;;;;;;;;;;;;50.03;12.08;101178.56;5039640;28;19924;-65
2022/10/06 05:38:24;;;;;;;;;;;;;;;49.78;12.22;101174.69;5046779;28;19920;-65
2022/10/06 05:40:58;;;;;;;;;;;;;;;49.37;12.61;101174.44;5046397;28;20377;-65
2022/10/06 05:43:25;;;;;;;;;;;;;;;48.87;12.87;101172.28;5039617;28;19921;-65
2022/10/06 05:45:55;;;;;;;;;;;;;;;49.17;12.43;101176.25;5043951;28;19928;-65
2022/10/06 05:48:22;;;;;;;;;;;;;;;48.71;13.13;101165.97;5045600;28;19920;-65
2022/10/06 05:50:56;;;;;;;;;;;;;;;49.11;12.38;101178.38;5045573;28;19948;-65
2022/10/06 05:53:23;;;;;;;;;;;;;;;49.19;12.39;101167.06;5042249;28;19920;-65
2022/10/06 05:55:49;;;;;;;;;;;;;;;48.59;13.19;101166.47;5046039;28;19928;-65
2022/10/06 05:58:15;;;;;;;;;;;;;;;49.01;12.94;101171.28;5045866;28;19917;-65
2022/10/06 06:00:42;;;;;;;;;;;;;;;49.52;12.59;101177.84;5048212;28;20426;-65
2022/10/06 06:03:08;;;;;;;;;;;;;;;49.29;12.29;101172.09;5044205;28;19921;-65
2022/10/06 06:05:41;;;;;;;;;;;;;;;49.09;12.41;101168.66;5048623;28;19920;-65
2022/10/06 06:08:09;;;;;;;;;;;;;;;49.27;12.99;101171.81;5047677;28;19921;-65
2022/10/06 06:10:36;;;;;;;;;;;;;;;49.02;12.72;101161.31;5048132;28;19916;-65
2022/10/06 06:13:03;;;;;;;;;;;;;;;49.17;12.60;101167.59;5041594;28;19921;-65
2022/10/06 06:18:22;;;;;;;;;;;;;;;49.08;13.18;101173.66;5047140;28;19920;-65
2022/10/06 06:20:59;;;;;;;;;;;;;;;49.39;12.74;101160.28;5038333;28;19927;-65
2022/10/06 06:23:34;;;;;;;;;;;;;;;49.58;12.98;101158.41;5033174;28;19952;-64
2022/10/06 06:26:01;;;;;;;;;;;;;;;49.54;13.24;101166.53;5044847;27;19967;-65
2022/10/06 06:28:29;;;;;;;;;;;;;;;49.52;12.85;101160.50;5040966;28;19932;-64
2022/10/06 06:31:04;;;;;;;;;;;;;;;49.55;13.03;101157.34;5037165;28;19969;-64
2022/10/06 06:33:30;;;;;;;;;;;;;;;49.34;12.75;101155.28;5037905;28;19970;-64
2022/10/06 06:36:00;;;;;;;;;;;;;;;49.38;12.64;101153.72;5036067;28;20382;-64
2022/10/06 06:38:26;;;;;;;;;;;;;;;49.30;13.21;101147.69;5044733;28;19921;-65
2022/10/06 06:40:53;;;;;;;;;;;;;;;49.30;12.85;101159.22;5042684;28;19921;-64
2022/10/06 06:43:19;;;;;;;;;;;;;;;49.33;13.09;101156.59;5050745;27;20351;-64
2022/10/06 06:46:15;;;;;;;;;;;;;;;49.31;12.85;101151.34;5038733;28;19966;-65
2022/10/06 06:48:54;;;;;;;;;;;;;;;49.29;13.26;101145.31;5050004;28;19925;-65
2022/10/06 06:51:22;;;;;;;;;;;;;;;49.27;13.21;101151.59;5043788;28;20408;-64
2022/10/06 06:53:50;;;;;;;;;;;;;;;49.25;12.38;101156.31;5043773;28;20075;-64
2022/10/06 06:56:16;;;;;;;;;;;;;;;49.19;12.78;101150.53;5045950;28;19968;-65
2022/10/06 06:58:46;;;;;;;;;;;;;;;49.13;12.86;101148.97;5052255;27;19989;-65
2022/10/06 07:01:14;;;;;;;;;;;;;;;49.19;13.20;101152.63;5066697;27;19928;-65
2022/10/06 07:03:44;;;;;;;;;;;;;;;49.16;13.28;101153.69;5095609;27;20370;-65
2022/10/06 07:06:13;;;;;;;;;;;;;;;49.08;13.03;101153.44;5081602;27;19919;-64
2022/10/06 07:08:44;;;;;;;;;;;;;;;48.88;13.47;101150.78;5089198;27;19916;-64
2022/10/06 07:11:15;;;;;;;;;;;;;;;48.98;12.77;101144.25;5081168;27;19919;-64
2022/10/06 07:13:44;;;;;;;;;;;;;;;49.14;12.97;101139.78;5091091;27;20048;-64
2022/10/06 07:27:18;;;;;;;;;;;;;;;48.89;13.25;101149.47;5132548;27;19998;-64
2022/10/06 07:29:45;;;;;;;;;;;;;;;48.89;13.63;101152.34;5132567;27;19923;-64
2022/10/06 07:32:13;;;;;;;;;;;;;;;48.72;13.74;101161.78;5069898;28;19921;-64
2022/10/06 07:34:40;;;;;;;;;;;;;;;48.38;13.88;101160.09;5046345;28;20337;-63
2022/10/06 07:37:06;;;;;;;;;;;;;;;48.18;14.05;101163.91;5048211;28;20401;-65
2022/10/06 07:39:33;;;;;;;;;;;;;;;48.42;13.43;101154.84;5047861;28;20392;-64
2022/10/06 07:42:00;;;;;;;;;;;;;;;48.62;13.19;101137.34;5047594;28;19917;-64
2022/10/06 07:44:27;;;;;;;;;;;;;;;48.73;12.48;101128.72;5047561;28;19927;-64
2022/10/06 07:46:53;;;;;;;;;;;;;;;48.56;12.78;101127.88;5047467;28;20686;-64
2022/10/06 07:49:32;;;;;;;;;;;;;;;48.80;12.74;101135.28;5047688;28;20442;-63
2022/10/06 07:51:59;;;;;;;;;;;;;;;48.76;12.54;101143.41;5048931;28;20398;-64
2022/10/06 07:54:25;;;;;;;;;;;;;;;48.62;12.61;101139.44;5047702;27;19952;-64
2022/10/06 07:57:09;;;;;;;;;;;;;;;48.62;13.01;101140.22;5048916;28;19927;-64
2022/10/06 07:59:36;;;;;;;;;;;;;;;48.64;12.75;101152.03;5048647;28;19924;-64
2022/10/06 08:02:02;;;;;;;;;;;;;;;48.56;13.48;101153.84;5048663;28;20381;-63
2022/10/06 08:04:28;;;;;;;;;;;;;;;48.52;13.20;101153.31;5048676;28;19921;-64
2022/10/06 08:06:57;;;;;;;;;;;;;;;48.40;13.24;101154.56;5047246;28;19974;-64
2022/10/06 08:09:23;;;;;;;;;;;;;;;48.25;13.36;101148.22;5048767;27;20417;-64
2022/10/06 08:11:49;;;;;;;;;;;;;;;47.88;13.90;101146.22;5048506;28;19921;-64
2022/10/06 08:14:15;;;;;;;;;;;;;;;47.35;13.97;101138.22;5048570;28;19920;-65
2022/10/06 08:16:42;;;;;;;;;;;;;;;47.63;13.92;101144.22;5048202;28;19916;-64
2022/10/06 08:19:08;;;;;;;;;;;;;;;48.06;13.36;101136.34;5048622;28;19927;-64
2022/10/06 08:21:34;;;;;;;;;;;;;;;48.16;13.64;101142.69;5049003;28;20384;-64
2022/10/06 08:24:01;;;;;;;;;;;;;;;48.31;12.92;101141.19;5051595;28;19932;-64
2022/10/06 08:26:28;;;;;;;;;;;;;;;48.24;13.31;101140.88;5051612;28;19924;-64
2022/10/06 08:28:58;;;;;;;;;;;;;;;48.22;13.45;101140.59;5051345;28;20671;-63
2022/10/06 08:31:24;;;;;;;;;;;;;;;48.15;13.25;101144.78;5051402;28;19960;-64
2022/10/06 08:33:55;;;;;;;;;;;;;;;48.18;13.75;101140.06;5051634;28;19960;-64
2022/10/06 08:36:22;;;;;;;;;;;;;;;48.14;13.54;101149.75;5051532;28;19927;-64
2022/10/06 08:38:49;;;;;;;;;;;;;;;48.10;13.43;101134.78;5051418;28;20312;-63
2022/10/06 08:41:18;;;;;;;;;;;;;;;48.07;13.66;101137.91;5051301;28;19961;-64
2022/10/06 08:43:52;;;;;;;;;;;;;;;48.03;13.58;101141.03;5051359;28;20061;-64
2022/10/06 08:46:20;;;;;;;;;;;;;;;47.95;13.83;101134.22;5051410;28;19921;-64
2022/10/06 08:48:46;;;;;;;;;;;;;;;47.89;13.93;101141.22;5051279;28;19940;-64
2022/10/06 08:51:31;;;;;;;;;;;;;;;47.68;13.70;101150.00;5051223;28;19970;-64
2022/10/06 08:54:03;;;;;;;;;;;;;;;47.60;14.57;101137.38;5051327;28;19924;-63
2022/10/06 08:56:36;;;;;;;;;;;;;;;47.45;14.26;101137.53;5051241;28;20289;-64
2022/10/06 08:59:03;;;;;;;;;;;;;;;47.52;14.31;101136.28;5051139;28;20349;-63
2022/10/06 09:01:32;;;;;;;;;;;;;;;47.44;14.53;101140.91;5050662;28;20008;-63
2022/10/06 09:04:02;;;;;;;;;;;;;;;47.19;14.35;101148.31;5050953;28;19967;-64
2022/10/06 09:06:30;;;;;;;;;;;;;;;47.25;14.78;101147.06;5051113;28;19929;-63
2022/10/06 09:09:00;;;;;;;;;;;;;;;47.03;14.95;101146.03;5050840;28;19945;-64
2022/10/06 09:11:42;;;;;;;;;;;;;;;47.17;14.93;101153.78;5051081;28;19921;-63
2022/10/06 09:14:29;;;;;;;;;;;;;;;47.16;14.58;101144.34;5050826;28;20013;-64
2022/10/06 09:16:59;;;;;;;;;;;;;;;47.22;14.49;101144.41;5057260;28;19924;-63
2022/10/06 09:19:31;;;;;;;;;;;;;;;47.24;14.73;101136.84;5050986;28;19920;-64
2022/10/06 09:21:59;;;;;;;;;;;;;;;47.29;14.82;101143.16;5049293;28;20338;-64
2022/10/06 09:24:44;;;;;;;;;;;;;;;47.30;14.53;101141.84;5050123;28;19924;-64
2022/10/06 09:27:16;;;;;;;;;;;;;;;47.15;15.13;101147.75;5050666;28;20025;-64
2022/10/06 09:29:43;;;;;;;;;;;;;;;47.12;14.75;101137.22;5050191;28;20446;-64
2022/10/06 09:32:09;;;;;;;;;;;;;;;47.21;14.73;101139.94;5050248;28;20297;-63
2022/10/06 09:34:45;;;;;;;;;;;;;;;47.13;15.41;101133.88;5050596;28;19921;-62
2022/10/06 09:37:12;;;;;;;;;;;;;;;47.08;15.02;101133.81;5049242;28;20003;-63
2022/10/06 09:39:40;;;;;;;;;;;;;;;47.10;15.09;101140.63;5050951;27;20334;-64
2022/10/06 09:42:09;;;;;;;;;;;;;;;47.14;15.58;101135.44;5050743;28;20336;-64
2022/10/06 09:44:43;;;;;;;;;;;;;;;47.15;15.04;101133.34;5050521;28;19975;-63
2022/10/06 09:47:23;;;;;;;;;;;;;;;46.99;15.55;101145.47;5050703;28;19974;-64
2022/10/06 09:50:10;;;;;;;;;;;;;;;46.99;15.22;101140.50;5050719;28;19920;-63
2022/10/06 09:52:40;;;;;;;;;;;;;;;46.88;16.09;101155.59;5050365;28;19925;-63
2022/10/06 09:55:13;;;;;;;;;;;;;;;46.44;16.48;101149.34;5050606;28;19924;-63
2022/10/06 09:57:55;;;;;;;;;;;;;;;46.62;16.98;101146.94;5050349;28;19921;-64
2022/10/06 10:00:28;;;;;;;;;;;;;;;46.86;17.19;101135.19;5050505;28;19921;-63
2022/10/06 10:02:59;;;;;;;;;;;;;;;47.09;17.02;101138.25;5050308;28;20229;-63
2022/10/06 10:05:28;;;;;;;;;;;;;;;47.03;17.18;101135.31;5050506;27;19921;-64
2022/10/06 10:08:01;;;;;;;;;;;;;;;47.00;17.09;101141.31;5050482;28;19944;-63
2022/10/06 10:10:28;;;;;;;;;;;;;;;46.97;17.44;101149.66;5048983;28;19947;-64
2022/10/06 10:12:58;;;;;;;;;;;;;;;46.87;17.63;101156.91;5049991;28;19936;-64
2022/10/06 10:15:34;;;;;;;;;;;;;;;46.96;17.35;101153.84;5049019;28;19984;-63
2022/10/06 10:18:02;;;;;;;;;;;;;;;47.07;17.38;101155.25;5050227;28;19921;-64
2022/10/06 10:20:33;;;;;;;;;;;;;;;46.91;17.77;101159.56;5050177;28;19917;-64
2022/10/06 10:23:06;;;;;;;;;;;;;;;46.95;17.46;101143.63;5049882;28;19948;-63
2022/10/06 10:25:37;;;;;;;;;;;;;;;47.06;17.74;101145.03;5050180;28;19925;-64
2022/10/06 10:28:16;;;;;;;;;;;;;;;47.23;17.83;101143.13;5050058;28;19921;-64
2022/10/06 10:30:48;;;;;;;;;;;;;;;47.03;17.72;101148.91;5049682;28;20008;-64
2022/10/06 10:33:21;;;;;;;;;;;;;;;47.03;17.62;101146.03;5049301;27;19921;-63
2022/10/06 10:35:50;;;;;;;;;;;;;;;47.10;17.60;101157.09;5029669;28;20390;-63
2022/10/06 10:38:17;;;;;;;;;;;;;;;47.13;17.65;101158.97;5030185;28;19921;-64
2022/10/06 10:40:47;;;;;;;;;;;;;;;47.21;17.99;101157.22;5029824;28;20382;-63
2022/10/06 10:43:32;;;;;;;;;;;;;;;47.09;18.50;101149.78;5029905;28;19921;-64
2022/10/06 10:46:05;;;;;;;;;;;;;;;47.05;18.65;101154.97;5029013;28;19960;-63
2022/10/06 10:48:37;;;;;;;;;;;;;;;46.70;18.82;101158.81;5029993;28;19917;-64
2022/10/06 10:51:12;;;;;;;;;;;;;;;46.09;19.92;101158.81;5029864;28;19928;-63
2022/10/06 10:53:50;;;;;;;;;;;;;;;46.28;20.09;101162.97;5029675;28;20413;-63
2022/10/06 10:56:18;;;;;;;;;;;;;;;46.53;19.78;101157.81;5029748;28;19921;-63
2022/10/06 10:58:46;;;;;;;;;;;;;;;46.55;19.25;101158.91;5029555;28;19917;-63
2022/10/06 11:01:16;;;;;;;;;;;;;;;46.51;19.30;101160.41;5035893;28;20354;-63
2022/10/06 11:03:42;;;;;;;;;;;;;;;46.79;19.33;101154.97;5049357;28;19920;-64
2022/10/06 11:06:30;;;;;;;;;;;;;;;46.94;19.22;101165.06;5049423;28;19965;-63
2022/10/06 11:09:06;;;;;;;;;;;;;;;47.01;18.68;101154.41;5049343;28;19916;-63
2022/10/06 11:11:36;;;;;;;;;;;;;;;46.67;19.46;101165.53;5049304;28;19925;-63
2022/10/06 11:14:08;;;;;;;;;;;;;;;46.17;20.15;101162.06;5049255;28;19977;-63
2022/10/06 11:17:07;;;;;;;;;;;;;;;46.17;20.13;101162.06;5049117;28;19939;-63
2022/10/06 11:19:36;;;;;;;;;;;;;;;46.50;19.39;101165.34;5071198;28;19921;-64
2022/10/06 11:22:02;;;;;;;;;;;;;;;45.96;19.51;101166.97;5048959;28;19981;-64
2022/10/06 11:24:52;;;;;;;;;;;;;;;46.34;19.69;101172.47;5049220;28;19921;-65
2022/10/06 11:27:34;;;;;;;;;;;;;;;46.39;19.36;101176.75;5049187;28;19942;-64
2022/10/06 11:30:06;;;;;;;;;;;;;;;46.35;19.27;101173.28;5049272;28;20419;-63
2022/10/06 11:32:46;;;;;;;;;;;;;;;46.52;18.97;101170.63;5048842;28;19928;-63
2022/10/06 11:35:25;;;;;;;;;;;;;;;46.30;19.86;101185.47;5048443;28;19929;-63
2022/10/06 11:38:10;;;;;;;;;;;;;;;46.30;19.65;101189.13;5048944;28;19921;-63
2022/10/06 11:40:48;;;;;;;;;;;;;;;46.46;19.54;101193.53;5049217;28;19920;-63
2022/10/06 11:43:33;;;;;;;;;;;;;;;46.17;19.96;101190.81;5049643;28;19925;-64
2022/10/06 11:46:20;;;;;;;;;;;;;;;46.50;19.23;101188.38;5049753;28;20382;-64
2022/10/06 11:48:47;;;;;;;;;;;;;;;46.44;19.26;101209.72;5049551;28;19948;-64
2022/10/06 11:51:16;;;;;;;;;;;;;;;46.47;19.30;101200.09;5049824;28;19924;-63
2022/10/06 11:53:46;;;;;;;;;;;;;;;46.42;19.37;101209.44;5049424;28;19925;-63
2022/10/06 11:56:18;;;;;;;;;;;;;;;46.04;20.36;101214.94;5051076;28;20016;-63
2022/10/06 11:58:50;;;;;;;;;;;;;;;46.06;20.55;101214.44;5053023;28;19920;-63
2022/10/06 12:01:38;;;;;;;;;;;;;;;45.94;20.06;101221.28;5051728;28;19936;-64
2022/10/06 12:04:07;;;;;;;;;;;;;;;46.04;20.57;101225.63;5053287;27;20388;-64
2022/10/06 12:09:24;;;;;;;;;;;;;;;45.24;21.70;101230.53;5052691;28;19927;-64
2022/10/06 12:11:51;;;;;;;;;;;;;;;45.54;21.45;101231.34;5052917;28;19928;-64
2022/10/06 12:14:17;;;;;;;;;;;;;;;45.26;21.75;101233.75;5053004;28;19923;-63
2022/10/06 12:16:45;;;;;;;;;;;;;;;45.83;20.46;101232.63;5052698;28;20390;-63
2022/10/06 12:19:33;;;;;;;;;;;;;;;46.12;20.80;101228.88;5052953;28;20338;-63
2022/10/06 12:22:08;;;;;;;;;;;;;;;46.14;20.40;101232.81;5052704;28;19956;-64
2022/10/06 12:25:04;;;;;;;;;;;;;;;46.19;20.36;101237.09;5052875;27;19963;-64
2022/10/06 12:27:48;;;;;;;;;;;;;;;45.51;21.15;101246.69;5061248;28;19925;-63
2022/10/06 12:30:22;;;;;;;;;;;;;;;45.84;20.75;101251.44;5057193;27;19921;-64
2022/10/06 12:32:51;;;;;;;;;;;;;;;45.22;21.46;101255.25;5129394;27;19919;-63
2022/10/06 12:35:28;;;;;;;;;;;;;;;45.47;20.87;101255.50;5137264;27;19958;-63
2022/10/06 12:37:59;;;;;;;;;;;;;;;44.63;22.74;101250.19;5137196;27;20432;-64
2022/10/06 12:40:39;;;;;;;;;;;;;;;44.94;21.68;101255.53;5137600;27;20500;-63
2022/10/06 12:43:17;;;;;;;;;;;;;;;44.68;22.46;101249.50;5105191;27;20373;-63
2022/10/06 12:45:46;;;;;;;;;;;;;;;44.11;23.27;101252.41;5112801;27;19925;-63
2022/10/06 12:48:17;;;;;;;;;;;;;;;44.09;23.60;101259.91;5090076;27;19921;-63
2022/10/06 12:50:43;;;;;;;;;;;;;;;44.58;22.78;101265.22;5092235;27;19923;-63
2022/10/06 12:53:15;;;;;;;;;;;;;;;44.95;21.85;101271.47;5098592;27;19923;-63
2022/10/06 12:55:49;;;;;;;;;;;;;;;44.35;22.55;101275.38;5086752;27;20056;-63
2022/10/06 12:58:25;;;;;;;;;;;;;;;44.18;23.06;101277.88;5084722;27;19919;-63
2022/10/06 13:00:51;;;;;;;;;;;;;;;45.12;21.95;101286.94;5086479;27;19920;-63
2022/10/06 13:03:23;;;;;;;;;;;;;;;45.37;21.52;101290.56;5092432;27;19917;-63
2022/10/06 13:05:56;;;;;;;;;;;;;;;44.58;22.58;101288.16;5065561;27;19920;-63
2022/10/06 13:08:26;;;;;;;;;;;;;;;45.27;21.47;101295.59;5048630;28;19932;-62